sensor_id;sensor_type;location;lat;lon;timestamp;pressure;altitude;pressure_sealevel;temperature;humidity
67545;BME280;54380;47.770;11.150;2023-04-15T00:02:23;93819.66;;;6.31;65.43
67545;BME280;54380;47.770;11.150;2023-04-15T00:04:50;93817.31;;;6.29;65.78
67545;BME280;54380;47.770;11.150;2023-04-15T00:07:16;93811.00;;;6.30;65.48
67545;BME280;54380;47.770;11.150;2023-04-15T00:09:43;93817.59;;;6.33;65.14
67545;BME280;54380;47.770;11.150;2023-04-15T00:12:10;93806.38;;;6.37;65.10
67545;BME280;54380;47.770;11.150;2023-04-15T00:14:39;93807.94;;;6.38;65.25
67545;BME280;54380;47.770;11.150;2023-04-15T00:17:06;93801.41;;;6.41;64.97
67545;BME280;54380;47.770;11.150;2023-04-15T00:19:32;93804.03;;;6.41;65.12
67545;BME280;54380;47.770;11.150;2023-04-15T00:21:59;93800.13;;;6.44;65.01
67545;BME280;54380;47.770;11.150;2023-04-15T00:24:27;93805.91;;;6.46;64.53
67545;BME280;54380;47.770;11.150;2023-04-15T00:26:53;93804.34;;;6.50;64.74
67545;BME280;54380;47.770;11.150;2023-04-15T00:29:20;93801.50;;;6.51;64.66
67545;BME280;54380;47.770;11.150;2023-04-15T00:31:48;93802.53;;;6.50;64.62
67545;BME280;54380;47.770;11.150;2023-04-15T00:34:15;93804.34;;;6.50;64.59
67545;BME280;54380;47.770;11.150;2023-04-15T00:36:42;93800.16;;;6.49;64.54
67545;BME280;54380;47.770;11.150;2023-04-15T00:39:09;93804.09;;;6.51;64.42
67545;BME280;54380;47.770;11.150;2023-04-15T00:41:36;93794.94;;;6.54;64.14
67545;BME280;54380;47.770;11.150;2023-04-15T00:44:05;93805.16;;;6.50;64.22
67545;BME280;54380;47.770;11.150;2023-04-15T00:46:34;93804.34;;;6.50;64.43
67545;BME280;54380;47.770;11.150;2023-04-15T00:49:03;93804.06;;;6.46;64.22
67545;BME280;54380;47.770;11.150;2023-04-15T00:51:32;93799.84;;;6.40;64.34
67545;BME280;54380;47.770;11.150;2023-04-15T00:53:59;93799.25;;;6.33;64.58
67545;BME280;54380;47.770;11.150;2023-04-15T00:56:27;93796.81;;;6.26;65.14
67545;BME280;54380;47.770;11.150;2023-04-15T00:58:55;93802.50;;;6.18;64.86
67545;BME280;54380;47.770;11.150;2023-04-15T01:01:23;93805.63;;;6.15;64.85
67545;BME280;54380;47.770;11.150;2023-04-15T01:03:51;93806.63;;;6.09;65.40
67545;BME280;54380;47.770;11.150;2023-04-15T01:06:19;93801.34;;;6.04;65.30
67545;BME280;54380;47.770;11.150;2023-04-15T01:08:46;93796.06;;;5.99;65.50
67545;BME280;54380;47.770;11.150;2023-04-15T01:11:14;93798.13;;;5.97;65.46
67545;BME280;54380;47.770;11.150;2023-04-15T01:13:41;93794.47;;;5.98;65.45
67545;BME280;54380;47.770;11.150;2023-04-15T01:16:08;93798.97;;;6.02;65.34
67545;BME280;54380;47.770;11.150;2023-04-15T01:18:35;93797.69;;;6.05;65.21
67545;BME280;54380;47.770;11.150;2023-04-15T01:21:05;93799.34;;;6.11;65.58
67545;BME280;54380;47.770;11.150;2023-04-15T01:23:35;93801.97;;;6.16;65.25
67545;BME280;54380;47.770;11.150;2023-04-15T01:26:07;93799.41;;;6.21;64.97
67545;BME280;54380;47.770;11.150;2023-04-15T01:28:37;93800.22;;;6.22;65.42
67545;BME280;54380;47.770;11.150;2023-04-15T01:31:05;93799.72;;;6.25;64.67
67545;BME280;54380;47.770;11.150;2023-04-15T01:33:35;93798.41;;;6.27;64.85
67545;BME280;54380;47.770;11.150;2023-04-15T01:36:03;93795.84;;;6.32;64.79
67545;BME280;54380;47.770;11.150;2023-04-15T01:38:31;93786.97;;;6.38;64.85
67545;BME280;54380;47.770;11.150;2023-04-15T01:40:58;93787.78;;;6.44;64.87
67545;BME280;54380;47.770;11.150;2023-04-15T01:43:26;93789.13;;;6.47;64.64
67545;BME280;54380;47.770;11.150;2023-04-15T01:45:53;93780.75;;;6.50;64.03
67545;BME280;54380;47.770;11.150;2023-04-15T01:48:21;93785.75;;;6.51;64.13
67545;BME280;54380;47.770;11.150;2023-04-15T01:50:48;93785.22;;;6.49;64.13
67545;BME280;54380;47.770;11.150;2023-04-15T01:53:15;93781.53;;;6.45;64.39
67545;BME280;54380;47.770;11.150;2023-04-15T01:55:42;93782.00;;;6.42;64.28
67545;BME280;54380;47.770;11.150;2023-04-15T01:58:09;93788.81;;;6.38;64.46
67545;BME280;54380;47.770;11.150;2023-04-15T02:00:37;93795.34;;;6.35;64.50
67545;BME280;54380;47.770;11.150;2023-04-15T02:03:04;93789.00;;;6.31;64.26
67545;BME280;54380;47.770;11.150;2023-04-15T02:05:32;93792.66;;;6.30;64.46
67545;BME280;54380;47.770;11.150;2023-04-15T02:07:59;93793.97;;;6.28;64.92
67545;BME280;54380;47.770;11.150;2023-04-15T02:10:26;93788.72;;;6.28;65.28
67545;BME280;54380;47.770;11.150;2023-04-15T02:12:53;93781.34;;;6.25;65.28
67545;BME280;54380;47.770;11.150;2023-04-15T02:15:20;93792.59;;;6.20;65.32
67545;BME280;54380;47.770;11.150;2023-04-15T02:17:50;93791.81;;;6.20;65.28
67545;BME280;54380;47.770;11.150;2023-04-15T02:20:18;93787.28;;;6.15;65.75
67545;BME280;54380;47.770;11.150;2023-04-15T02:22:47;93793.03;;;6.12;65.38
67545;BME280;54380;47.770;11.150;2023-04-15T02:25:14;93795.09;;;6.10;65.62
67545;BME280;54380;47.770;11.150;2023-04-15T02:27:42;93789.59;;;6.06;65.73
67545;BME280;54380;47.770;11.150;2023-04-15T02:30:12;93791.66;;;6.04;66.08
67545;BME280;54380;47.770;11.150;2023-04-15T02:32:39;93799.50;;;6.04;65.85
67545;BME280;54380;47.770;11.150;2023-04-15T02:35:08;93797.44;;;6.06;65.65
67545;BME280;54380;47.770;11.150;2023-04-15T02:37:36;93794.88;;;6.11;65.47
67545;BME280;54380;47.770;11.150;2023-04-15T02:40:09;93788.34;;;6.14;65.32
67545;BME280;54380;47.770;11.150;2023-04-15T02:42:37;93794.09;;;6.16;65.29
67545;BME280;54380;47.770;11.150;2023-04-15T02:45:07;93794.41;;;6.20;65.32
67545;BME280;54380;47.770;11.150;2023-04-15T02:47:34;93791.84;;;6.25;65.27
67545;BME280;54380;47.770;11.150;2023-04-15T02:50:04;93791.56;;;6.26;65.33
67545;BME280;54380;47.770;11.150;2023-04-15T02:52:32;93792.13;;;6.28;64.79
67545;BME280;54380;47.770;11.150;2023-04-15T02:54:59;93787.44;;;6.30;64.88
67545;BME280;54380;47.770;11.150;2023-04-15T02:57:28;93788.75;;;6.33;64.76
67545;BME280;54380;47.770;11.150;2023-04-15T02:59:58;93786.16;;;6.33;64.82
67545;BME280;54380;47.770;11.150;2023-04-15T03:02:25;93797.16;;;6.35;64.50
67545;BME280;54380;47.770;11.150;2023-04-15T03:04:53;93795.34;;;6.35;64.68
67545;BME280;54380;47.770;11.150;2023-04-15T03:07:20;93801.38;;;6.36;64.63
67545;BME280;54380;47.770;11.150;2023-04-15T03:09:49;93802.16;;;6.36;64.88
67545;BME280;54380;47.770;11.150;2023-04-15T03:12:16;93799.28;;;6.38;64.98
67545;BME280;54380;47.770;11.150;2023-04-15T03:14:43;93802.47;;;6.40;64.36
67545;BME280;54380;47.770;11.150;2023-04-15T03:17:10;93799.56;;;6.42;64.17
67545;BME280;54380;47.770;11.150;2023-04-15T03:19:37;93799.03;;;6.40;64.76
67545;BME280;54380;47.770;11.150;2023-04-15T03:22:04;93794.28;;;6.36;64.48
67545;BME280;54380;47.770;11.150;2023-04-15T03:24:31;93794.28;;;6.36;64.43
67545;BME280;54380;47.770;11.150;2023-04-15T03:26:59;93795.34;;;6.35;64.58
67545;BME280;54380;47.770;11.150;2023-04-15T03:29:28;93797.41;;;6.33;64.67
67545;BME280;54380;47.770;11.150;2023-04-15T03:31:54;93795.06;;;6.32;64.34
67545;BME280;54380;47.770;11.150;2023-04-15T03:34:21;93803.16;;;6.30;64.37
67545;BME280;54380;47.770;11.150;2023-04-15T03:36:48;93796.88;;;6.31;64.35
67545;BME280;54380;47.770;11.150;2023-04-15T03:39:15;93797.69;;;6.32;64.83
67545;BME280;54380;47.770;11.150;2023-04-15T03:41:42;93789.25;;;6.30;64.48
67545;BME280;54380;47.770;11.150;2023-04-15T03:44:10;93797.38;;;6.28;64.68
67545;BME280;54380;47.770;11.150;2023-04-15T03:46:37;93786.28;;;6.21;64.28
67545;BME280;54380;47.770;11.150;2023-04-15T03:49:05;93789.13;;;6.14;64.86
67545;BME280;54380;47.770;11.150;2023-04-15T03:51:32;93783.59;;;6.11;64.46
67545;BME280;54380;47.770;11.150;2023-04-15T03:53:59;93784.91;;;6.08;64.42
67545;BME280;54380;47.770;11.150;2023-04-15T03:56:25;93789.31;;;6.08;65.27
67545;BME280;54380;47.770;11.150;2023-04-15T03:58:52;93778.84;;;6.08;64.74
67545;BME280;54380;47.770;11.150;2023-04-15T04:01:21;93782.28;;;6.08;64.93
67545;BME280;54380;47.770;11.150;2023-04-15T04:03:48;93772.81;;;6.07;64.96
67545;BME280;54380;47.770;11.150;2023-04-15T04:06:15;93774.84;;;6.00;64.69
67545;BME280;54380;47.770;11.150;2023-04-15T04:08:42;93786.09;;;5.96;65.04
67545;BME280;54380;47.770;11.150;2023-04-15T04:11:09;93787.91;;;5.95;64.92
67545;BME280;54380;47.770;11.150;2023-04-15T04:13:36;93790.53;;;5.95;65.16
67545;BME280;54380;47.770;11.150;2023-04-15T04:16:03;93781.31;;;5.92;64.83
67545;BME280;54380;47.770;11.150;2023-04-15T04:18:32;93792.03;;;5.91;64.79
67545;BME280;54380;47.770;11.150;2023-04-15T04:20:59;93793.03;;;5.85;65.20
67545;BME280;54380;47.770;11.150;2023-04-15T04:23:26;93794.84;;;5.84;65.42
67545;BME280;54380;47.770;11.150;2023-04-15T04:25:52;93790.41;;;5.85;65.42
67545;BME280;54380;47.770;11.150;2023-04-15T04:28:19;93797.22;;;5.86;65.11
67545;BME280;54380;47.770;11.150;2023-04-15T04:30:46;93797.72;;;5.83;65.32
67545;BME280;54380;47.770;11.150;2023-04-15T04:33:13;93800.84;;;5.80;65.59
67545;BME280;54380;47.770;11.150;2023-04-15T04:35:41;93801.06;;;5.78;65.51
67545;BME280;54380;47.770;11.150;2023-04-15T04:38:08;93806.59;;;5.82;65.19
67545;BME280;54380;47.770;11.150;2023-04-15T04:40:34;93804.84;;;5.87;65.24
67545;BME280;54380;47.770;11.150;2023-04-15T04:43:02;93807.75;;;5.91;64.82
67545;BME280;54380;47.770;11.150;2023-04-15T04:45:28;93812.19;;;5.90;65.14
67545;BME280;54380;47.770;11.150;2023-04-15T04:47:55;93810.13;;;5.92;65.04
67545;BME280;54380;47.770;11.150;2023-04-15T04:50:22;93810.44;;;5.96;65.37
67545;BME280;54380;47.770;11.150;2023-04-15T04:52:50;93817.53;;;5.96;64.85
67545;BME280;54380;47.770;11.150;2023-04-15T04:55:17;93814.81;;;5.90;65.50
67545;BME280;54380;47.770;11.150;2023-04-15T04:57:44;93813.72;;;5.86;65.50
67545;BME280;54380;47.770;11.150;2023-04-15T05:00:11;93813.44;;;5.83;65.41
67545;BME280;54380;47.770;11.150;2023-04-15T05:02:39;93813.66;;;5.81;65.51
67545;BME280;54380;47.770;11.150;2023-04-15T05:05:08;93813.91;;;5.80;65.79
67545;BME280;54380;47.770;11.150;2023-04-15T05:07:35;93814.72;;;5.80;65.95
67545;BME280;54380;47.770;11.150;2023-04-15T05:10:05;93808.97;;;5.83;66.15
67545;BME280;54380;47.770;11.150;2023-04-15T05:12:32;93807.94;;;5.84;65.48
67545;BME280;54380;47.770;11.150;2023-04-15T05:14:58;93809.22;;;5.82;65.98
67545;BME280;54380;47.770;11.150;2023-04-15T05:17:25;93806.84;;;5.80;65.53
67545;BME280;54380;47.770;11.150;2023-04-15T05:19:52;93814.44;;;5.82;66.47
67545;BME280;54380;47.770;11.150;2023-04-15T05:22:19;93807.41;;;5.82;66.32
67545;BME280;54380;47.770;11.150;2023-04-15T05:24:46;93808.75;;;5.85;66.05
67545;BME280;54380;47.770;11.150;2023-04-15T05:27:14;93808.47;;;5.86;66.21
67545;BME280;54380;47.770;11.150;2023-04-15T05:29:41;93813.22;;;5.89;66.12
67545;BME280;54380;47.770;11.150;2023-04-15T05:32:08;93815.38;;;5.92;66.26
67545;BME280;54380;47.770;11.150;2023-04-15T05:34:34;93813.34;;;6.00;65.56
67545;BME280;54380;47.770;11.150;2023-04-15T05:37:01;93809.75;;;6.06;65.35
67545;BME280;54380;47.770;11.150;2023-04-15T05:39:28;93814.28;;;6.15;65.66
67545;BME280;54380;47.770;11.150;2023-04-15T05:41:55;93825.13;;;6.24;65.70
67545;BME280;54380;47.770;11.150;2023-04-15T05:44:24;93822.84;;;6.33;64.50
67545;BME280;54380;47.770;11.150;2023-04-15T05:46:51;93824.22;;;6.41;64.81
67545;BME280;54380;47.770;11.150;2023-04-15T05:49:18;93832.91;;;6.46;64.36
67545;BME280;54380;47.770;11.150;2023-04-15T05:51:46;93824.56;;;6.54;64.65
67545;BME280;54380;47.770;11.150;2023-04-15T05:54:13;93830.41;;;6.62;64.57
67545;BME280;54380;47.770;11.150;2023-04-15T05:56:39;93819.19;;;6.66;64.65
67545;BME280;54380;47.770;11.150;2023-04-15T05:59:26;93826.53;;;6.69;64.43
67545;BME280;54380;47.770;11.150;2023-04-15T06:01:53;93828.66;;;6.72;64.53
67545;BME280;54380;47.770;11.150;2023-04-15T06:04:20;93827.09;;;6.76;64.42
67545;BME280;54380;47.770;11.150;2023-04-15T06:06:48;93832.88;;;6.78;64.79
67545;BME280;54380;47.770;11.150;2023-04-15T06:09:15;93828.41;;;6.79;64.28
67545;BME280;54380;47.770;11.150;2023-04-15T06:11:42;93821.88;;;6.81;64.45
67545;BME280;54380;47.770;11.150;2023-04-15T06:14:09;93825.59;;;6.86;64.32
67545;BME280;54380;47.770;11.150;2023-04-15T06:16:37;93821.72;;;6.93;64.11
67545;BME280;54380;47.770;11.150;2023-04-15T06:19:04;93823.56;;;6.98;63.99
67545;BME280;54380;47.770;11.150;2023-04-15T06:21:31;93828.31;;;7.01;63.55
67545;BME280;54380;47.770;11.150;2023-04-15T06:23:58;93823.09;;;7.06;63.62
67545;BME280;54380;47.770;11.150;2023-04-15T06:26:27;93825.47;;;7.13;63.56
67545;BME280;54380;47.770;11.150;2023-04-15T06:28:54;93832.88;;;7.21;63.68
67545;BME280;54380;47.770;11.150;2023-04-15T06:31:21;93827.66;;;7.26;63.59
67545;BME280;54380;47.770;11.150;2023-04-15T06:33:49;93829.00;;;7.34;63.77
67545;BME280;54380;47.770;11.150;2023-04-15T06:36:16;93828.78;;;7.40;63.42
67545;BME280;54380;47.770;11.150;2023-04-15T06:38:44;93832.50;;;7.50;63.45
67545;BME280;54380;47.770;11.150;2023-04-15T06:41:10;93830.44;;;7.57;63.66
67545;BME280;54380;47.770;11.150;2023-04-15T06:43:38;93835.44;;;7.63;63.48
67545;BME280;54380;47.770;11.150;2023-04-15T06:46:05;93830.19;;;7.68;63.64
67545;BME280;54380;47.770;11.150;2023-04-15T06:48:32;93837.59;;;7.72;63.75
67545;BME280;54380;47.770;11.150;2023-04-15T06:51:00;93831.03;;;7.74;64.15
67545;BME280;54380;47.770;11.150;2023-04-15T06:53:27;93826.28;;;7.76;64.29
67545;BME280;54380;47.770;11.150;2023-04-15T06:55:54;93829.44;;;7.78;64.06
67545;BME280;54380;47.770;11.150;2023-04-15T06:58:21;93821.06;;;7.81;64.10
67545;BME280;54380;47.770;11.150;2023-04-15T07:00:48;93824.75;;;7.85;63.43
67545;BME280;54380;47.770;11.150;2023-04-15T07:03:15;93821.34;;;7.90;63.53
67545;BME280;54380;47.770;11.150;2023-04-15T07:05:41;93822.69;;;7.93;62.50
67545;BME280;54380;47.770;11.150;2023-04-15T07:08:10;93823.72;;;7.97;62.51
67545;BME280;54380;47.770;11.150;2023-04-15T07:10:37;93823.19;;;8.00;62.42
67545;BME280;54380;47.770;11.150;2023-04-15T07:13:03;93817.72;;;8.06;62.18
67545;BME280;54380;47.770;11.150;2023-04-15T07:15:31;93819.81;;;8.14;62.06
67545;BME280;54380;47.770;11.150;2023-04-15T07:17:57;93819.84;;;8.20;61.98
67545;BME280;54380;47.770;11.150;2023-04-15T07:20:24;93818.53;;;8.27;61.79
67545;BME280;54380;47.770;11.150;2023-04-15T07:22:51;93817.72;;;8.32;61.48
67545;BME280;54380;47.770;11.150;2023-04-15T07:25:20;93818.78;;;8.36;61.59
67545;BME280;54380;47.770;11.150;2023-04-15T07:27:46;93815.41;;;8.41;61.68
67545;BME280;54380;47.770;11.150;2023-04-15T07:30:13;93811.72;;;8.47;61.15
67545;BME280;54380;47.770;11.150;2023-04-15T07:32:41;93812.50;;;8.57;61.85
67545;BME280;54380;47.770;11.150;2023-04-15T07:35:08;93813.56;;;8.67;61.50
67545;BME280;54380;47.770;11.150;2023-04-15T07:37:35;93810.94;;;8.72;61.05
67545;BME280;54380;47.770;11.150;2023-04-15T07:40:02;93811.97;;;8.76;61.08
67545;BME280;54380;47.770;11.150;2023-04-15T07:42:32;93813.56;;;8.82;60.68
67545;BME280;54380;47.770;11.150;2023-04-15T07:44:59;93816.97;;;8.88;60.85
67545;BME280;54380;47.770;11.150;2023-04-15T07:47:26;93812.75;;;8.97;60.34
67545;BME280;54380;47.770;11.150;2023-04-15T07:49:52;93818.28;;;9.00;60.39
67545;BME280;54380;47.770;11.150;2023-04-15T07:52:19;93819.06;;;9.06;59.78
67545;BME280;54380;47.770;11.150;2023-04-15T07:54:46;93808.00;;;9.09;59.14
67545;BME280;54380;47.770;11.150;2023-04-15T07:57:13;93816.44;;;9.11;58.72
67545;BME280;54380;47.770;11.150;2023-04-15T07:59:41;93815.59;;;9.16;58.85
67545;BME280;54380;47.770;11.150;2023-04-15T08:02:08;93810.63;;;9.19;57.27
67545;BME280;54380;47.770;11.150;2023-04-15T08:04:35;93817.44;;;9.20;57.63
67545;BME280;54380;47.770;11.150;2023-04-15T08:07:02;93817.72;;;9.19;57.64
67545;BME280;54380;47.770;11.150;2023-04-15T08:09:30;93813.25;;;9.19;57.68
67545;BME280;54380;47.770;11.150;2023-04-15T08:11:57;93816.09;;;9.28;57.69
67545;BME280;54380;47.770;11.150;2023-04-15T08:14:23;93818.19;;;9.31;57.77
67545;BME280;54380;47.770;11.150;2023-04-15T08:16:51;93806.34;;;9.34;58.22
67545;BME280;54380;47.770;11.150;2023-04-15T08:19:18;93808.41;;;9.42;58.18
67545;BME280;54380;47.770;11.150;2023-04-15T08:21:46;93805.75;;;9.52;58.27
67545;BME280;54380;47.770;11.150;2023-04-15T08:24:13;93811.53;;;9.59;57.73
67545;BME280;54380;47.770;11.150;2023-04-15T08:26:39;93815.47;;;9.67;57.07
67545;BME280;54380;47.770;11.150;2023-04-15T08:29:07;93813.06;;;9.71;56.73
67545;BME280;54380;47.770;11.150;2023-04-15T08:31:34;93814.09;;;9.75;56.34
67545;BME280;54380;47.770;11.150;2023-04-15T08:34:03;93814.06;;;9.85;57.55
67545;BME280;54380;47.770;11.150;2023-04-15T08:36:30;93811.84;;;10.02;57.08
67545;BME280;54380;47.770;11.150;2023-04-15T08:38:58;93812.56;;;10.13;56.47
67545;BME280;54380;47.770;11.150;2023-04-15T08:41:28;93808.53;;;10.31;57.23
67545;BME280;54380;47.770;11.150;2023-04-15T08:44:00;93808.19;;;10.48;56.20
67545;BME280;54380;47.770;11.150;2023-04-15T08:46:29;93801.72;;;10.64;56.74
67545;BME280;54380;47.770;11.150;2023-04-15T08:48:57;93801.03;;;10.83;55.64
67545;BME280;54380;47.770;11.150;2023-04-15T08:51:26;93806.22;;;10.93;55.84
67545;BME280;54380;47.770;11.150;2023-04-15T08:53:53;93803.75;;;11.02;55.03
67545;BME280;54380;47.770;11.150;2023-04-15T08:56:23;93799.72;;;11.09;54.85
67545;BME280;54380;47.770;11.150;2023-04-15T09:10:29;93800.91;;;11.46;53.01
67545;BME280;54380;47.770;11.150;2023-04-15T09:12:56;93801.28;;;11.58;52.95
67545;BME280;54380;47.770;11.150;2023-04-15T09:18:27;93797.91;;;11.77;52.38
67545;BME280;54380;47.770;11.150;2023-04-15T09:20:54;93801.53;;;11.86;52.38
67545;BME280;54380;47.770;11.150;2023-04-15T09:52:12;93810.69;;;11.70;49.64
67545;BME280;54380;47.770;11.150;2023-04-15T09:57:36;93820.06;;;11.81;49.53
67545;BME280;54380;47.770;11.150;2023-04-15T10:00:04;93818.72;;;11.83;49.33
67545;BME280;54380;47.770;11.150;2023-04-15T10:02:33;93819.47;;;11.89;48.41
67545;BME280;54380;47.770;11.150;2023-04-15T10:05:01;93812.34;;;11.84;48.31
67545;BME280;54380;47.770;11.150;2023-04-15T10:07:29;93817.41;;;11.86;48.54
67545;BME280;54380;47.770;11.150;2023-04-15T10:09:58;93810.25;;;11.86;48.41
67545;BME280;54380;47.770;11.150;2023-04-15T10:12:27;93816.91;;;11.79;48.11
67545;BME280;54380;47.770;11.150;2023-04-15T10:14:57;93815.94;;;11.75;48.60
67545;BME280;54380;47.770;11.150;2023-04-15T10:23:57;93824.91;;;11.74;48.31
